Time;durP1;ratioP1;P1;durP2;ratioP2;P2;SDS_P1;SDS_P2;PMS_P1;PMS_P2;Temp;Humidity;BMP_temperature;BMP_pressure;BME280_temperature;BME280_humidity;BME280_pressure;Samples;Min_cycle;Max_cycle;Signal;HPM_P1;HPM_P2
2022/07/27 00:01:31;;;;;;;2.30;0.50;;;12.60;99.90;;;;;;5014867;28;20132;-88
2022/07/27 00:03:57;;;;;;;4.63;0.60;;;12.60;99.90;;;;;;5015789;28;20025;-88
2022/07/27 00:06:22;;;;;;;3.28;0.55;;;12.60;99.90;;;;;;5015420;28;20470;-89
2022/07/27 00:08:49;;;;;;;2.83;0.50;;;12.50;99.90;;;;;;5037881;28;20124;-88
2022/07/27 00:11:14;;;;;;;4.57;0.60;;;12.50;99.90;;;;;;5029693;28;20029;-88
2022/07/27 00:13:40;;;;;;;3.50;0.70;;;12.40;99.90;;;;;;5017762;28;20505;-88
2022/07/27 00:16:06;;;;;;;3.63;0.50;;;12.40;99.90;;;;;;5017556;28;20496;-88
2022/07/27 00:18:31;;;;;;;2.55;0.55;;;12.40;99.90;;;;;;5035416;28;20492;-88
2022/07/27 00:20:57;;;;;;;3.03;0.70;;;12.40;99.90;;;;;;5031284;28;20025;-88
2022/07/27 00:23:23;;;;;;;3.60;1.00;;;12.30;99.90;;;;;;5014211;28;20037;-88
2022/07/27 00:25:48;;;;;;;5.85;0.70;;;12.20;99.90;;;;;;5025966;28;20025;-88
2022/07/27 00:28:14;;;;;;;3.05;0.60;;;12.20;99.90;;;;;;5021557;28;20026;-88
2022/07/27 00:30:40;;;;;;;3.58;0.70;;;12.20;99.90;;;;;;5017261;28;20067;-88
2022/07/27 00:33:05;;;;;;;2.05;0.73;;;12.10;99.90;;;;;;5031462;28;20026;-88
2022/07/27 00:35:31;;;;;;;6.18;0.95;;;12.10;99.90;;;;;;5025373;28;20044;-87
2022/07/27 00:37:57;;;;;;;2.83;0.85;;;12.10;99.90;;;;;;5030328;28;20025;-88
2022/07/27 00:40:23;;;;;;;6.38;0.80;;;12.00;99.90;;;;;;5018631;28;20048;-88
2022/07/27 00:42:48;;;;;;;2.17;0.77;;;12.00;99.90;;;;;;5022686;28;20025;-88
2022/07/27 00:45:14;;;;;;;2.33;0.82;;;11.90;99.90;;;;;;5015574;28;20088;-88
2022/07/27 00:47:40;;;;;;;5.43;0.60;;;11.90;99.90;;;;;;5027220;28;20100;-89
2022/07/27 00:50:06;;;;;;;3.13;0.60;;;11.80;99.90;;;;;;5037254;28;20120;-87
2022/07/27 00:52:32;;;;;;;4.00;0.88;;;11.80;99.90;;;;;;5042113;28;20021;-88
2022/07/27 00:54:58;;;;;;;2.38;0.68;;;11.80;99.90;;;;;;5041768;28;20032;-88
2022/07/27 00:57:26;;;;;;;2.63;0.60;;;11.70;99.90;;;;;;5045314;28;20028;-88
2022/07/27 00:59:52;;;;;;;3.83;0.60;;;11.70;99.90;;;;;;5035682;28;20036;-88
2022/07/27 01:02:17;;;;;;;4.03;0.75;;;11.70;99.90;;;;;;5033828;28;20310;-87
2022/07/27 01:04:43;;;;;;;4.15;0.70;;;11.60;99.90;;;;;;5036601;28;20074;-88
2022/07/27 01:07:09;;;;;;;3.85;0.70;;;11.60;99.90;;;;;;5035224;28;20029;-87
2022/07/27 01:12:20;;;;;;;4.47;0.63;;;11.50;99.90;;;;;;5053152;28;20063;-88
2022/07/27 01:14:47;;;;;;;4.30;1.00;;;11.50;99.90;;;;;;5049177;28;20032;-88
2022/07/27 01:17:13;;;;;;;6.53;1.02;;;11.40;99.90;;;;;;5055509;28;20024;-87
2022/07/27 01:19:38;;;;;;;4.47;0.70;;;11.40;99.90;;;;;;5046361;28;20037;-87
2022/07/27 01:22:07;;;;;;;2.42;0.70;;;11.40;99.90;;;;;;5028718;28;20029;-87
2022/07/27 01:24:33;;;;;;;2.83;0.60;;;11.40;99.90;;;;;;5033557;28;20033;-88
2022/07/27 01:27:04;;;;;;;2.22;0.60;;;11.30;99.90;;;;;;5046424;28;20025;-88
2022/07/27 01:29:31;;;;;;;4.45;1.42;;;11.30;99.90;;;;;;5035355;28;20053;-87
2022/07/27 01:31:57;;;;;;;2.22;0.70;;;11.30;99.90;;;;;;5039217;28;20499;-87
2022/07/27 01:34:22;;;;;;;4.47;0.77;;;11.30;99.90;;;;;;5048697;28;20115;-88
2022/07/27 01:36:48;;;;;;;1.88;0.77;;;11.20;99.90;;;;;;5035662;28;20099;-87
2022/07/27 01:39:15;;;;;;;4.68;0.68;;;11.20;99.90;;;;;;5049954;28;20032;-88
2022/07/27 01:41:41;;;;;;;4.20;0.80;;;11.20;99.90;;;;;;5036443;28;20033;-87
2022/07/27 01:44:07;;;;;;;2.55;0.70;;;11.20;99.90;;;;;;5027243;28;20021;-89
2022/07/27 01:46:32;;;;;;;5.68;0.80;;;11.20;99.90;;;;;;5032579;28;20034;-87
2022/07/27 01:48:58;;;;;;;4.78;1.02;;;11.10;99.90;;;;;;5031436;28;20024;-88
2022/07/27 01:51:23;;;;;;;2.03;0.70;;;11.10;99.90;;;;;;5021542;28;20035;-88
2022/07/27 01:53:49;;;;;;;3.67;0.90;;;11.10;99.90;;;;;;5032062;28;20033;-87
2022/07/27 01:56:15;;;;;;;3.50;0.95;;;11.10;99.90;;;;;;5034525;28;20534;-88
2022/07/27 01:58:41;;;;;;;4.35;0.70;;;11.00;99.90;;;;;;5034173;28;20513;-87
2022/07/27 02:01:07;;;;;;;5.25;1.35;;;11.00;99.90;;;;;;5033569;28;20075;-87
2022/07/27 02:03:33;;;;;;;5.35;0.65;;;11.00;99.90;;;;;;5044931;28;20049;-87
2022/07/27 02:05:59;;;;;;;6.55;0.63;;;11.00;99.90;;;;;;5035374;28;20017;-88
2022/07/27 02:08:25;;;;;;;5.82;0.70;;;10.90;99.90;;;;;;5035059;28;20082;-87
2022/07/27 02:13:35;;;;;;;7.20;0.70;;;10.90;99.90;;;;;;5049836;28;20078;-87
2022/07/27 02:16:00;;;;;;;5.07;0.68;;;10.90;99.90;;;;;;5033223;28;20025;-87
2022/07/27 02:18:26;;;;;;;3.13;0.70;;;10.90;99.90;;;;;;5029146;28;20057;-88
2022/07/27 02:20:52;;;;;;;5.05;0.70;;;10.80;99.90;;;;;;5034038;28;20041;-87
2022/07/27 02:23:18;;;;;;;1.70;0.45;;;10.80;99.90;;;;;;5041302;28;20028;-87
2022/07/27 02:25:43;;;;;;;3.80;1.10;;;10.80;99.90;;;;;;5032520;28;20020;-88
2022/07/27 02:28:09;;;;;;;5.47;0.98;;;10.70;99.90;;;;;;5050194;28;20502;-86
2022/07/27 02:30:35;;;;;;;4.15;1.02;;;10.70;99.90;;;;;;5042905;28;20028;-87
2022/07/27 02:33:01;;;;;;;2.45;0.60;;;10.70;99.90;;;;;;5055357;28;20020;-87
2022/07/27 02:35:26;;;;;;;4.38;0.82;;;10.60;99.90;;;;;;5034460;28;20021;-87
2022/07/27 02:37:52;;;;;;;3.15;0.63;;;10.60;99.90;;;;;;5021356;28;20028;-87
2022/07/27 02:40:18;;;;;;;5.60;1.00;;;10.60;99.90;;;;;;5030152;28;20128;-87
2022/07/27 02:42:45;;;;;;;4.43;0.70;;;10.60;99.90;;;;;;5041408;28;20383;-87
2022/07/27 02:45:11;;;;;;;3.80;0.50;;;10.60;99.90;;;;;;5051334;28;20067;-87
2022/07/27 02:47:38;;;;;;;3.35;1.48;;;10.60;99.90;;;;;;5021407;28;20099;-87
2022/07/27 02:50:06;;;;;;;3.72;1.05;;;10.50;99.90;;;;;;5036444;28;20079;-87
2022/07/27 02:52:32;;;;;;;2.25;0.70;;;10.50;99.90;;;;;;5043902;28;20119;-87
2022/07/27 02:54:57;;;;;;;3.47;0.70;;;10.50;99.90;;;;;;5033412;28;20029;-86
2022/07/27 02:57:23;;;;;;;5.15;0.77;;;10.50;99.90;;;;;;5022141;28;20386;-87
2022/07/27 02:59:48;;;;;;;4.63;1.27;;;10.50;99.90;;;;;;5052990;28;20045;-87
2022/07/27 03:02:14;;;;;;;3.25;1.02;;;10.50;99.90;;;;;;5032622;28;20120;-87
2022/07/27 03:04:39;;;;;;;4.53;0.80;;;10.40;99.90;;;;;;5017705;28;20032;-87
2022/07/27 03:07:05;;;;;;;5.25;1.23;;;10.40;99.90;;;;;;5033720;28;20025;-87
2022/07/27 03:09:31;;;;;;;6.68;1.38;;;10.40;99.90;;;;;;5031044;28;20040;-87
2022/07/27 03:11:56;;;;;;;1.75;0.70;;;10.30;99.90;;;;;;5035165;28;20071;-87
2022/07/27 03:14:22;;;;;;;3.65;0.80;;;10.40;99.90;;;;;;5038384;28;20028;-87
2022/07/27 03:16:47;;;;;;;6.55;1.17;;;10.30;99.90;;;;;;5033317;28;20021;-87
2022/07/27 03:19:13;;;;;;;3.15;1.13;;;10.30;99.90;;;;;;5033228;28;20082;-87
2022/07/27 03:21:38;;;;;;;4.60;1.83;;;10.30;99.90;;;;;;5039103;28;20041;-87
2022/07/27 03:24:04;;;;;;;2.90;0.93;;;10.30;99.90;;;;;;5022847;28;20032;-88
2022/07/27 03:26:32;;;;;;;4.32;1.35;;;10.20;99.90;;;;;;5033910;28;20041;-88
2022/07/27 03:28:57;;;;;;;4.30;1.13;;;10.20;99.90;;;;;;5031581;28;22011;-87
2022/07/27 03:31:23;;;;;;;3.60;1.20;;;10.20;99.90;;;;;;5041835;28;20032;-87
2022/07/27 03:33:48;;;;;;;2.50;0.98;;;10.20;99.90;;;;;;5038710;28;20503;-87
2022/07/27 03:36:14;;;;;;;2.85;0.88;;;10.20;99.90;;;;;;5033721;28;20032;-87
2022/07/27 03:38:39;;;;;;;4.00;1.20;;;10.20;99.90;;;;;;5033107;28;20435;-88
2022/07/27 03:41:05;;;;;;;4.68;1.70;;;10.20;99.90;;;;;;5040586;28;20742;-87
2022/07/27 03:43:32;;;;;;;5.68;1.70;;;10.20;99.90;;;;;;5035913;28;20037;-87
2022/07/27 03:45:57;;;;;;;4.05;1.10;;;10.30;99.90;;;;;;5035861;28;20030;-86
2022/07/27 03:48:23;;;;;;;3.17;1.02;;;10.30;99.90;;;;;;5032505;28;20048;-87
2022/07/27 03:50:48;;;;;;;4.38;1.10;;;10.20;99.90;;;;;;5032252;28;20036;-86
2022/07/27 03:53:16;;;;;;;4.00;1.20;;;10.20;99.90;;;;;;5033916;28;20021;-87
2022/07/27 03:55:42;;;;;;;4.50;1.60;;;10.20;99.90;;;;;;5032510;28;20039;-87
2022/07/27 03:58:07;;;;;;;4.88;1.33;;;10.20;99.90;;;;;;5043245;28;20111;-86
2022/07/27 04:00:33;;;;;;;5.38;1.42;;;10.20;99.90;;;;;;5035810;28;20048;-87
2022/07/27 04:02:58;;;;;;;4.78;1.45;;;10.20;99.90;;;;;;5037326;28;20017;-87
2022/07/27 04:05:24;;;;;;;4.40;1.40;;;10.20;99.90;;;;;;5037246;28;20033;-87
2022/07/27 04:07:49;;;;;;;3.85;1.77;;;10.20;99.90;;;;;;5046108;28;20090;-87
2022/07/27 04:10:15;;;;;;;4.93;1.73;;;10.20;99.90;;;;;;5048750;28;20039;-87
2022/07/27 04:12:41;;;;;;;5.43;2.10;;;10.10;99.90;;;;;;5037355;28;20036;-86
2022/07/27 04:15:07;;;;;;;3.70;1.98;;;10.10;99.90;;;;;;5036468;28;20028;-87
2022/07/27 04:17:32;;;;;;;4.05;1.52;;;10.10;99.90;;;;;;5049647;28;20476;-86
2022/07/27 04:19:58;;;;;;;4.97;1.60;;;10.10;99.90;;;;;;5036892;28;20025;-86
2022/07/27 04:22:23;;;;;;;4.20;1.73;;;10.10;99.90;;;;;;5039631;28;20079;-87
2022/07/27 04:24:50;;;;;;;3.03;1.60;;;10.10;99.90;;;;;;5034202;28;20021;-87
2022/07/27 04:27:16;;;;;;;3.78;1.73;;;10.20;99.90;;;;;;5041255;28;20477;-87
2022/07/27 04:29:42;;;;;;;6.18;1.92;;;10.20;99.90;;;;;;5039606;28;20071;-87
2022/07/27 04:32:07;;;;;;;6.18;2.10;;;10.30;99.90;;;;;;5041197;28;20037;-87
2022/07/27 04:34:33;;;;;;;4.50;2.25;;;10.30;99.90;;;;;;5037100;28;20031;-87
2022/07/27 04:36:58;;;;;;;5.72;2.47;;;10.40;99.90;;;;;;5032589;28;20112;-89
2022/07/27 04:39:25;;;;;;;8.60;2.70;;;10.40;99.90;;;;;;5041423;28;20115;-88
2022/07/27 04:41:50;;;;;;;4.47;2.92;;;10.40;99.90;;;;;;5033287;28;20481;-88
2022/07/27 04:44:16;;;;;;;5.57;2.67;;;10.50;99.90;;;;;;5029292;28;20021;-87
2022/07/27 04:46:42;;;;;;;8.20;2.53;;;10.60;99.90;;;;;;5036300;28;20081;-88
2022/07/27 04:49:07;;;;;;;4.85;2.33;;;10.60;99.90;;;;;;5037043;28;20025;-87
2022/07/27 04:51:34;;;;;;;5.40;3.00;;;10.70;99.90;;;;;;5037395;28;20507;-87
2022/07/27 04:53:59;;;;;;;5.55;2.90;;;10.80;99.90;;;;;;5039214;28;20107;-89
2022/07/27 04:56:26;;;;;;;9.95;3.17;;;10.80;99.90;;;;;;5026757;28;20064;-88
2022/07/27 04:58:51;;;;;;;7.10;3.78;;;10.80;99.90;;;;;;5034333;28;20028;-87
2022/07/27 05:01:17;;;;;;;5.65;3.38;;;10.90;99.90;;;;;;5033925;28;20101;-88
2022/07/27 05:03:42;;;;;;;7.43;3.17;;;11.00;99.90;;;;;;5034518;28;20473;-87
2022/07/27 05:06:08;;;;;;;7.70;3.95;;;11.10;99.90;;;;;;5036710;28;20025;-88
2022/07/27 05:08:34;;;;;;;5.65;3.33;;;11.30;99.90;;;;;;5036157;28;20031;-87
2022/07/27 05:11:00;;;;;;;7.57;3.95;;;11.30;99.90;;;;;;5037632;28;20096;-89
2022/07/27 05:13:25;;;;;;;7.32;3.50;;;11.40;99.90;;;;;;5023315;28;20029;-88
2022/07/27 05:15:51;;;;;;;5.72;3.65;;;11.60;99.90;;;;;;5035944;28;20032;-88
2022/07/27 05:18:17;;;;;;;7.63;3.85;;;11.70;99.90;;;;;;5042802;28;20024;-87
2022/07/27 05:20:43;;;;;;;13.43;4.03;;;11.70;99.90;;;;;;5028451;28;20037;-87
2022/07/27 05:23:09;;;;;;;7.95;3.70;;;11.90;99.90;;;;;;5033044;28;20405;-88
2022/07/27 05:25:34;;;;;;;8.05;4.18;;;12.00;99.90;;;;;;5035898;28;20024;-89
2022/07/27 05:28:00;;;;;;;7.13;3.05;;;12.30;99.90;;;;;;5036123;28;20028;-88
2022/07/27 05:30:25;;;;;;;4.30;2.13;;;12.70;99.90;;;;;;5034253;28;20040;-88
2022/07/27 05:32:52;;;;;;;6.25;1.58;;;13.10;99.90;;;;;;5034068;28;20029;-89
2022/07/27 05:35:18;;;;;;;4.15;1.40;;;13.60;99.90;;;;;;5032960;28;20030;-88
2022/07/27 05:37:43;;;;;;;3.17;1.60;;;14.20;99.90;;;;;;5036565;28;20505;-88
2022/07/27 05:40:09;;;;;;;2.78;1.60;;;14.70;99.90;;;;;;5052057;28;20048;-88
2022/07/27 05:42:35;;;;;;;4.72;0.90;;;15.10;99.90;;;;;;5032725;28;20385;-87
2022/07/27 05:45:00;;;;;;;4.80;0.82;;;15.50;99.90;;;;;;5052809;28;20044;-88
2022/07/27 05:47:26;;;;;;;2.38;0.88;;;15.80;99.90;;;;;;5035875;28;20041;-89
2022/07/27 05:49:51;;;;;;;3.58;0.93;;;15.90;99.90;;;;;;5036241;28;20052;-88
2022/07/27 05:52:19;;;;;;;2.65;1.02;;;15.90;99.90;;;;;;5032042;28;20122;-89
2022/07/27 05:54:45;;;;;;;4.53;0.82;;;15.90;99.90;;;;;;5036655;28;20408;-88
2022/07/27 05:57:11;;;;;;;4.25;0.80;;;15.90;99.90;;;;;;5033650;28;20029;-86
2022/07/27 05:59:37;;;;;;;3.88;0.80;;;15.80;99.90;;;;;;5039399;28;20033;-88
2022/07/27 06:02:03;;;;;;;6.75;1.70;;;15.80;99.90;;;;;;5045400;28;20033;-90
2022/07/27 06:04:28;;;;;;;4.95;1.15;;;15.80;99.90;;;;;;5026429;28;20120;-88
2022/07/27 06:09:46;;;;;;;5.23;1.00;;;15.80;99.90;;;;;;5036626;28;20071;-88
2022/07/27 06:12:11;;;;;;;3.65;0.95;;;15.80;99.90;;;;;;5035394;28;20029;-87
2022/07/27 06:14:37;;;;;;;11.73;1.65;;;15.80;99.90;;;;;;5045505;28;20560;-87
2022/07/27 06:17:03;;;;;;;5.88;0.90;;;15.80;99.90;;;;;;5032882;28;20108;-89
2022/07/27 06:19:30;;;;;;;3.95;0.90;;;15.90;99.90;;;;;;5032773;28;20020;-90
2022/07/27 06:21:56;;;;;;;5.22;0.60;;;15.80;99.90;;;;;;5029453;28;20066;-89
2022/07/27 06:24:21;;;;;;;6.78;1.13;;;15.80;99.90;;;;;;5032563;28;20029;-86
2022/07/27 06:26:47;;;;;;;5.53;0.60;;;15.80;99.90;;;;;;5034518;28;20036;-89
2022/07/27 06:29:12;;;;;;;5.78;0.60;;;15.90;99.90;;;;;;5030084;28;20117;-90
2022/07/27 06:31:38;;;;;;;4.82;1.23;;;15.90;99.90;;;;;;5029832;28;20017;-88
2022/07/27 06:34:04;;;;;;;6.10;0.88;;;15.90;99.90;;;;;;5038549;28;20428;-88
2022/07/27 06:36:29;;;;;;;1.98;0.60;;;15.90;99.90;;;;;;5037773;28;20033;-89
2022/07/27 06:38:55;;;;;;;2.92;0.60;;;16.00;99.90;;;;;;5028390;28;20405;-89
2022/07/27 06:41:20;;;;;;;3.80;0.60;;;16.00;99.90;;;;;;5034518;28;20037;-90
2022/07/27 06:43:46;;;;;;;6.85;1.00;;;16.10;99.90;;;;;;5027951;28;20393;-89
2022/07/27 06:46:12;;;;;;;3.20;0.60;;;16.10;99.90;;;;;;5030832;28;20035;-88
2022/07/27 06:48:38;;;;;;;3.60;0.80;;;16.20;99.90;;;;;;5027038;28;20124;-88
2022/07/27 06:51:04;;;;;;;2.60;0.55;;;16.20;99.90;;;;;;5027929;28;20025;-88
2022/07/27 06:53:30;;;;;;;3.58;1.17;;;16.40;99.90;;;;;;5048372;28;20025;-89
2022/07/27 06:55:57;;;;;;;2.47;0.85;;;16.50;99.90;;;;;;5031000;28;20088;-89
2022/07/27 06:58:22;;;;;;;5.30;0.90;;;16.50;99.90;;;;;;5029814;28;20029;-89
2022/07/27 07:00:48;;;;;;;3.50;0.52;;;16.50;99.90;;;;;;5044326;28;20033;-88
2022/07/27 07:03:14;;;;;;;6.22;0.77;;;16.40;99.90;;;;;;5048299;28;20029;-89
2022/07/27 07:05:42;;;;;;;1.98;0.47;;;16.50;99.90;;;;;;5025626;28;20028;-88
2022/07/27 07:08:10;;;;;;;3.38;0.35;;;16.50;99.90;;;;;;5046597;28;20458;-89
2022/07/27 07:10:40;;;;;;;2.55;0.38;;;16.70;99.90;;;;;;5030485;28;20032;-89
2022/07/27 07:13:07;;;;;;;4.25;0.50;;;16.80;99.90;;;;;;5047106;28;20021;-88
2022/07/27 07:15:33;;;;;;;2.70;0.60;;;16.90;99.90;;;;;;5027461;28;20082;-89
2022/07/27 07:17:59;;;;;;;2.70;0.60;;;17.10;99.90;;;;;;5030395;28;20104;-89
2022/07/27 07:20:24;;;;;;;1.73;0.30;;;17.30;99.90;;;;;;5026970;28;20180;-89
2022/07/27 07:22:50;;;;;;;3.33;0.40;;;17.40;99.90;;;;;;5025244;28;20032;-89
2022/07/27 07:25:16;;;;;;;3.67;0.40;;;17.50;99.90;;;;;;5024232;28;20032;-88
2022/07/27 07:27:42;;;;;;;2.53;0.65;;;17.60;99.90;;;;;;5027566;28;20025;-90
2022/07/27 07:30:08;;;;;;;5.05;0.45;;;17.80;99.90;;;;;;5023966;28;20027;-89
2022/07/27 07:32:33;;;;;;;3.28;0.40;;;17.80;99.90;;;;;;5030398;28;20025;-89
2022/07/27 07:35:00;;;;;;;2.50;0.40;;;17.90;99.90;;;;;;5027619;28;20053;-89
2022/07/27 07:37:25;;;;;;;3.78;0.30;;;18.00;99.90;;;;;;5031093;28;20535;-86
2022/07/27 07:39:51;;;;;;;4.40;0.40;;;18.10;99.90;;;;;;5029301;28;20025;-87
2022/07/27 07:42:17;;;;;;;1.73;0.30;;;18.20;99.90;;;;;;5035408;28;20030;-87
2022/07/27 07:44:42;;;;;;;4.32;0.30;;;18.30;99.90;;;;;;5027154;28;20029;-87
2022/07/27 07:47:08;;;;;;;3.35;0.25;;;18.40;99.90;;;;;;5025486;28;20049;-89
2022/07/27 07:49:34;;;;;;;2.58;0.40;;;18.50;99.90;;;;;;5034125;28;20115;-89
2022/07/27 07:52:00;;;;;;;1.85;0.30;;;18.60;99.90;;;;;;5037765;28;20078;-89
2022/07/27 07:54:26;;;;;;;3.25;0.20;;;18.70;99.90;;;;;;5026774;28;20045;-87
2022/07/27 07:56:52;;;;;;;1.55;0.20;;;18.80;99.90;;;;;;5031902;28;20053;-89
2022/07/27 07:59:18;;;;;;;1.80;0.20;;;18.80;99.60;;;;;;5065472;28;20508;-88
2022/07/27 08:01:44;;;;;;;3.00;0.15;;;18.90;99.90;;;;;;5033996;28;20033;-88
2022/07/27 08:04:10;;;;;;;2.05;0.10;;;19.10;99.70;;;;;;5041350;28;20036;-89
2022/07/27 08:06:37;;;;;;;3.22;0.20;;;19.20;98.90;;;;;;5032233;28;20116;-88
2022/07/27 08:09:03;;;;;;;1.40;0.20;;;19.20;98.40;;;;;;5035848;28;20021;-89
2022/07/27 08:11:31;;;;;;;1.98;0.20;;;19.10;98.20;;;;;;5031428;28;20032;-91
2022/07/27 08:13:57;;;;;;;2.92;0.20;;;19.00;97.90;;;;;;5035664;28;20025;-87
2022/07/27 08:16:23;;;;;;;5.53;0.75;;;19.10;97.30;;;;;;5031515;28;20044;-88
2022/07/27 08:18:48;;;;;;;2.08;0.20;;;19.10;96.90;;;;;;5034605;28;20020;-87
2022/07/27 08:21:14;;;;;;;2.53;0.20;;;19.00;96.60;;;;;;5030198;28;20048;-88
2022/07/27 08:23:40;;;;;;;2.47;0.20;;;19.00;96.70;;;;;;5029919;28;20025;-88
2022/07/27 08:26:05;;;;;;;2.03;0.20;;;18.90;96.00;;;;;;5051234;28;20150;-87
2022/07/27 08:28:31;;;;;;;1.75;0.20;;;18.80;96.00;;;;;;5032437;28;20623;-87
2022/07/27 08:30:56;;;;;;;2.60;0.30;;;18.70;95.70;;;;;;5032223;28;20025;-88
2022/07/27 08:33:22;;;;;;;2.15;0.10;;;18.70;96.20;;;;;;5031197;28;20021;-88
2022/07/27 08:35:48;;;;;;;2.72;0.32;;;18.80;96.10;;;;;;5031995;28;20028;-87
2022/07/27 08:38:13;;;;;;;3.63;0.47;;;18.90;95.70;;;;;;5034448;28;20029;-88
2022/07/27 08:40:39;;;;;;;1.60;0.20;;;19.00;95.30;;;;;;5030735;28;20045;-87
2022/07/27 08:43:06;;;;;;;3.20;0.28;;;19.00;95.40;;;;;;5027823;28;20079;-87
2022/07/27 08:45:32;;;;;;;1.65;0.28;;;19.10;95.30;;;;;;5024606;28;20036;-89
2022/07/27 08:47:58;;;;;;;3.13;0.50;;;19.10;95.00;;;;;;5033005;28;20394;-88
2022/07/27 08:50:24;;;;;;;2.80;0.22;;;19.20;95.10;;;;;;5034808;28;20033;-90
2022/07/27 08:53:03;;;;;;;1.60;0.28;;;19.30;94.80;;;;;;5030828;28;20021;-90
2022/07/27 08:55:34;;;;;;;4.82;0.20;;;19.50;94.50;;;;;;5056474;28;20033;-89
2022/07/27 08:58:00;;;;;;;1.42;0.15;;;19.50;93.80;;;;;;5030531;28;20119;-90
2022/07/27 09:00:26;;;;;;;2.55;0.20;;;19.60;93.50;;;;;;5033669;28;20056;-90
2022/07/27 09:02:53;;;;;;;3.00;0.43;;;19.70;93.00;;;;;;5035697;28;20025;-90
2022/07/27 09:05:18;;;;;;;1.77;0.20;;;19.80;92.50;;;;;;5034785;28;20068;-90
2022/07/27 09:07:44;;;;;;;1.73;0.28;;;19.70;92.30;;;;;;5030060;28;20121;-90
2022/07/27 09:10:10;;;;;;;1.17;0.30;;;19.70;92.60;;;;;;5032728;28;20029;-89
2022/07/27 09:12:36;;;;;;;3.05;0.32;;;19.80;92.40;;;;;;5035784;28;20076;-89
2022/07/27 09:15:11;;;;;;;1.45;0.20;;;19.90;92.70;;;;;;5031426;28;20041;-90
2022/07/27 09:17:38;;;;;;;2.50;0.20;;;20.00;91.90;;;;;;5032708;28;20026;-90
2022/07/27 09:20:10;;;;;;;4.00;0.40;;;20.00;91.40;;;;;;5032869;28;20037;-90
2022/07/27 09:22:55;;;;;;;;;;;20.10;91.20;;;;;;5034366;28;20079;-89
2022/07/27 09:25:27;;;;;;;3.33;0.20;;;20.10;91.10;;;;;;5035223;28;20366;-90
2022/07/27 09:27:55;;;;;;;3.58;0.50;;;20.10;91.20;;;;;;5027535;28;20476;-90
2022/07/27 09:30:21;;;;;;;1.88;0.30;;;20.20;90.60;;;;;;5036026;28;20024;-90
2022/07/27 09:33:03;;;;;;;1.67;0.20;;;20.20;90.70;;;;;;5033917;28;20029;-89
2022/07/27 09:35:32;;;;;;;1.35;0.30;;;20.40;91.10;;;;;;5052518;28;20025;-88
2022/07/27 09:38:21;;;;;;;5.00;0.20;;;20.50;90.50;;;;;;5032703;28;20464;-89
2022/07/27 09:41:07;;;;;;;3.80;0.30;;;20.60;89.30;;;;;;5032988;28;20082;-90
2022/07/27 09:43:47;;;;;;;3.00;0.20;;;20.50;86.50;;;;;;5033740;28;20037;-91
2022/07/27 09:46:13;;;;;;;2.13;0.25;;;20.50;86.60;;;;;;5046903;28;20037;-90
2022/07/27 09:48:40;;;;;;;2.22;0.30;;;20.50;86.40;;;;;;5028737;28;20048;-89
2022/07/27 09:51:09;;;;;;;1.23;0.20;;;20.40;87.80;;;;;;5028687;28;20098;-89
2022/07/27 09:53:35;;;;;;;2.53;0.47;;;20.50;86.90;;;;;;5028847;28;20017;-90
2022/07/27 09:56:05;;;;;;;2.05;0.20;;;20.30;86.90;;;;;;5033153;28;20239;-89
2022/07/27 09:58:49;;;;;;;2.88;0.20;;;20.40;87.10;;;;;;5031566;28;20505;-88
2022/07/27 10:01:23;;;;;;;2.83;0.40;;;20.50;86.60;;;;;;5028789;28;20063;-89
2022/07/27 10:03:51;;;;;;;3.25;0.30;;;20.60;86.10;;;;;;5048171;28;20086;-90
2022/07/27 10:06:17;;;;;;;4.57;0.40;;;20.70;85.50;;;;;;5048862;28;20534;-89
2022/07/27 10:08:45;;;;;;;2.53;0.30;;;20.70;84.50;;;;;;5032889;28;20024;-89
2022/07/27 10:11:12;;;;;;;1.42;0.20;;;20.80;83.40;;;;;;5029624;28;20029;-89
2022/07/27 10:13:38;;;;;;;3.75;0.30;;;20.80;82.60;;;;;;5031959;28;20559;-89
2022/07/27 10:16:10;;;;;;;3.25;0.55;;;20.80;82.50;;;;;;5033973;28;20539;-91
2022/07/27 10:19:14;;;;;;;2.55;0.40;;;20.90;82.80;;;;;;5035219;28;20029;-89
2022/07/27 10:21:45;;;;;;;3.35;0.30;;;21.00;80.40;;;;;;5028966;28;20115;-90
2022/07/27 10:24:22;;;;;;;1.88;0.30;;;21.10;80.10;;;;;;5029190;28;20125;-89
2022/07/27 10:26:48;;;;;;;2.75;0.40;;;21.10;80.40;;;;;;5047153;28;20110;-90
2022/07/27 10:29:19;;;;;;;1.65;0.30;;;21.30;79.60;;;;;;5030673;28;20033;-90
2022/07/27 10:31:51;;;;;;;4.65;0.40;;;21.30;79.00;;;;;;5030933;28;20028;-90
2022/07/27 10:34:41;;;;;;;2.17;0.30;;;21.30;78.80;;;;;;5046546;28;20125;-90
2022/07/27 10:37:13;;;;;;;2.05;0.30;;;21.10;78.40;;;;;;5047433;28;20037;-91
2022/07/27 10:39:44;;;;;;;1.45;0.30;;;21.10;78.40;;;;;;5030194;28;20033;-90
2022/07/27 10:42:20;;;;;;;3.28;0.40;;;21.20;78.60;;;;;;5030519;28;20033;-89
2022/07/27 10:44:53;;;;;;;2.10;0.30;;;21.30;77.60;;;;;;5046668;28;20102;-90
2022/07/27 10:47:50;;;;;;;4.30;0.38;;;21.30;77.30;;;;;;5031755;28;20052;-89
2022/07/27 10:50:15;;;;;;;0.90;0.25;;;21.00;77.30;;;;;;5017808;28;20040;-90
2022/07/27 10:52:44;;;;;;;5.65;0.50;;;20.90;78.80;;;;;;5034784;28;20021;-89
2022/07/27 10:55:35;;;;;;;1.73;0.30;;;20.90;79.00;;;;;;5029742;28;20047;-90
2022/07/27 10:58:09;;;;;;;1.85;0.30;;;20.70;79.80;;;;;;5045291;28;20037;-89
2022/07/27 11:00:50;;;;;;;1.67;0.30;;;20.80;81.30;;;;;;5053855;28;20120;-89
2022/07/27 11:03:26;;;;;;;2.00;0.40;;;20.90;80.70;;;;;;5033099;28;20090;-89
2022/07/27 11:05:56;;;;;;;1.45;0.20;;;21.00;79.40;;;;;;5050639;28;20465;-90
2022/07/27 11:08:28;;;;;;;2.08;0.22;;;21.10;78.10;;;;;;5034580;28;20034;-90
2022/07/27 11:10:54;;;;;;;;;;;21.30;79.50;;;;;;5036993;28;20017;-89
2022/07/27 11:13:22;;;;;;;2.20;0.30;;;21.50;79.60;;;;;;5042465;28;19915;-90
2022/07/27 11:16:00;;;;;;;1.02;0.20;;;21.70;79.20;;;;;;5036117;28;20059;-87
2022/07/27 11:18:32;;;;;;;3.00;0.30;;;21.90;78.00;;;;;;5032860;28;20031;-90
2022/07/27 11:21:20;;;;;;;3.58;0.40;;;22.10;77.00;;;;;;5036814;28;20041;-89
2022/07/27 11:24:17;;;;;;;3.65;0.25;;;22.20;76.80;;;;;;5054224;28;20408;-90
2022/07/27 11:26:45;;;;;;;1.23;0.38;;;22.30;75.20;;;;;;5018932;28;20143;-91
2022/07/27 11:29:12;;;;;;;1.30;0.22;;;22.00;74.60;;;;;;5035293;28;20164;-91
2022/07/27 11:31:40;;;;;;;3.65;0.30;;;21.70;74.50;;;;;;5037103;28;20029;-91
2022/07/27 11:34:06;;;;;;;3.72;0.30;;;21.50;74.80;;;;;;5037066;28;20159;-91
2022/07/27 11:36:37;;;;;;;1.70;0.30;;;21.30;74.90;;;;;;5039846;28;20120;-90
2022/07/27 11:39:05;;;;;;;1.50;0.20;;;21.40;74.90;;;;;;5053702;28;20021;-91
2022/07/27 11:41:32;;;;;;;3.65;0.40;;;21.60;73.60;;;;;;5039788;28;20095;-92
2022/07/27 11:44:00;;;;;;;1.95;0.30;;;21.70;70.50;;;;;;5038282;28;20028;-90
2022/07/27 11:46:28;;;;;;;0.95;0.20;;;21.70;68.20;;;;;;5038940;28;20029;-90
2022/07/27 11:49:03;;;;;;;1.00;0.30;;;21.70;68.70;;;;;;5036693;28;20465;-90
2022/07/27 11:51:29;;;;;;;4.07;0.50;;;21.90;68.70;;;;;;5052198;28;20033;-90
2022/07/27 11:53:59;;;;;;;2.85;0.30;;;22.10;68.60;;;;;;5049700;28;20021;-88
2022/07/27 11:56:27;;;;;;;1.85;0.20;;;22.30;68.70;;;;;;5053002;28;20025;-90
2022/07/27 11:58:57;;;;;;;2.90;0.25;;;22.60;68.50;;;;;;5036641;28;20076;-89
2022/07/27 12:01:32;;;;;;;0.88;0.28;;;22.80;68.20;;;;;;5038977;28;20404;-90
2022/07/27 12:04:23;;;;;;;2.20;0.40;;;23.00;66.50;;;;;;5040618;28;20029;-92
2022/07/27 12:07:20;;;;;;;4.82;0.30;;;23.00;66.00;;;;;;5039261;28;20116;-91
2022/07/27 12:10:00;;;;;;;5.25;0.30;;;22.90;65.40;;;;;;5021671;28;20049;-91
2022/07/27 12:12:31;;;;;;;2.15;0.20;;;22.80;66.00;;;;;;5053027;28;20032;-91
2022/07/27 12:15:00;;;;;;;1.73;0.20;;;22.70;66.60;;;;;;5036696;28;20049;-90
2022/07/27 12:17:33;;;;;;;1.08;0.20;;;22.50;66.70;;;;;;5037934;28;20029;-90
2022/07/27 12:20:08;;;;;;;2.05;0.20;;;22.40;67.10;;;;;;5052022;28;20104;-91
2022/07/27 12:22:36;;;;;;;2.58;0.20;;;22.30;67.50;;;;;;5032557;28;20072;-90
2022/07/27 12:25:06;;;;;;;2.55;0.45;;;22.30;67.80;;;;;;5048585;28;20071;-91
2022/07/27 12:27:33;;;;;;;1.70;0.20;;;22.30;67.00;;;;;;5032962;28;20029;-90
2022/07/27 12:30:00;;;;;;;3.05;0.38;;;22.20;66.50;;;;;;5032657;28;20025;-89
2022/07/27 12:32:28;;;;;;;2.03;0.25;;;22.00;65.20;;;;;;5034583;28;20541;-91
2022/07/27 12:34:55;;;;;;;2.72;0.15;;;21.80;64.60;;;;;;5032750;28;20547;-91
2022/07/27 12:37:21;;;;;;;1.52;0.20;;;21.60;65.10;;;;;;5035638;28;20037;-90
2022/07/27 12:39:48;;;;;;;1.13;0.20;;;21.60;65.80;;;;;;5032993;28;20028;-89
2022/07/27 12:42:14;;;;;;;1.98;0.20;;;21.80;64.00;;;;;;5028581;28;20482;-89
2022/07/27 12:44:42;;;;;;;0.88;0.20;;;22.10;62.60;;;;;;5034597;28;20576;-89
2022/07/27 12:50:05;;;;;;;0.65;0.10;;;22.80;61.60;;;;;;5050056;28;20032;-90
2022/07/27 12:52:31;;;;;;;1.38;0.15;;;23.20;60.70;;;;;;5051110;28;20477;-90
2022/07/27 12:54:57;;;;;;;1.25;0.30;;;23.50;59.80;;;;;;5030878;28;20025;-90
2022/07/27 12:57:24;;;;;;;1.75;0.20;;;23.70;59.70;;;;;;5035350;28;20059;-89
2022/07/27 12:59:49;;;;;;;1.58;0.20;;;23.70;59.00;;;;;;5035081;28;20025;-90
2022/07/27 13:02:15;;;;;;;2.03;0.30;;;23.50;58.80;;;;;;5029945;28;20036;-90